Startpagina
METAR-TAF:

METAR-TAF

Vliegvelden :

Aeropuerto de Central Ciudad Real

Ciudad Real, Spanje

breedte: 38-51-17N, lengte: 3-58-08W, hoogte: 636 m

Actueel weer

Dit bericht is 44 minuten geleden gemaakt, om 16:00 UTC
Wind 3 kt uit het oostzuidoosten, variërend tussen het noordoosten en het zuidwesten
Temperatuur 10°C
Vochtigheid 71%
Druk 1017 hPa
Zicht 10 km of meer
Verspreide wolken op 4800 ft
regen

METAR: LERL 231600Z 12003KT 050V220 9999 RA SCT048 10/05 Q1017

Tijdstip: 17:44 (16:44 UTC)


TAF: ontbreekt

Waarnemingen en weersverwachtingen van meer dan 4000 vliegvelden (METAR en TAF).

De beschikbare stations zijn de gele en rode punten op de kaart.

Ga met uw muis naar het station om de naam te zien.

Klik dan om waarnemingen en weersverwachtingen te zien.

kaart wijzigen: klik op de groene knoppen met een zwart kruis om in te zoomen, op de groene knop met een streepje om uit te zoomen of op de groene pijlen voor aangrenzende kaarten.


METAR-TAF: